createdAt,value
2019-01-18T00:00:33.010Z,47.03
2019-01-18T00:03:02.373Z,59.98
2019-01-18T00:05:31.776Z,63.30
2019-01-18T00:08:01.176Z,71.40
2019-01-18T00:10:30.471Z,65.50
2019-01-18T00:12:59.858Z,62.83
2019-01-18T00:15:29.568Z,53.10
2019-01-18T00:17:58.957Z,61.75
2019-01-18T00:20:28.163Z,51.88
2019-01-18T00:22:57.413Z,47.20
2019-01-18T00:25:26.758Z,65.50
2019-01-18T00:27:56.167Z,61.75
2019-01-18T00:30:25.487Z,62.38
2019-01-18T00:32:54.827Z,53.58
2019-01-18T00:35:24.468Z,48.78
2019-01-18T00:37:53.883Z,58.50
2019-01-18T00:40:23.281Z,37.70
2019-01-18T00:42:54.222Z,41.95
2019-01-18T00:45:23.943Z,37.17
2019-01-18T00:47:53.335Z,49.08
2019-01-18T00:50:22.704Z,61.25
2019-01-18T00:52:51.979Z,37.10
2019-01-18T00:55:21.392Z,44.45
2019-01-18T00:57:51.137Z,46.18
2019-01-18T01:00:25.694Z,39.08
2019-01-18T01:02:55.375Z,39.15
2019-01-18T01:05:25.873Z,32.42
2019-01-18T01:07:55.314Z,36.55
2019-01-18T01:10:24.659Z,33.53
2019-01-18T01:12:54.058Z,27.37
2019-01-18T01:15:23.733Z,38.10
2019-01-18T01:17:53.095Z,33.08
2019-01-18T01:20:22.965Z,24.72
2019-01-18T01:22:52.363Z,37.45
2019-01-18T01:25:21.775Z,27.32
2019-01-18T01:27:51.671Z,42.93
2019-01-18T01:30:27.060Z,25.70
2019-01-18T01:32:56.538Z,18.67
2019-01-18T01:35:25.830Z,24.10
2019-01-18T01:37:55.140Z,32.20
2019-01-18T01:40:26.312Z,24.15
2019-01-18T01:42:55.928Z,25.85
2019-01-18T01:45:28.585Z,33.83
2019-01-18T01:47:57.865Z,26.33
2019-01-18T01:50:28.157Z,33.83
2019-01-18T01:52:58.134Z,27.45
2019-01-18T01:55:27.492Z,27.32
2019-01-18T01:57:57.280Z,28.35
2019-01-18T02:00:30.906Z,19.60
2019-01-18T02:03:00.137Z,28.80
2019-01-18T02:05:29.823Z,25.40
2019-01-18T02:07:59.284Z,33.98
2019-01-18T02:10:28.655Z,27.52
2019-01-18T02:12:58.021Z,23.87
2019-01-18T02:15:27.945Z,20.60
2019-01-18T02:17:57.191Z,21.87
2019-01-18T02:20:26.973Z,34.27
2019-01-18T02:22:56.298Z,30.50
2019-01-18T02:25:25.535Z,35.60
2019-01-18T02:27:54.816Z,29.80
2019-01-18T02:30:26.819Z,31.05
2019-01-18T02:32:56.868Z,37.48
2019-01-18T02:35:26.455Z,33.20
2019-01-18T02:37:56.170Z,46.18
2019-01-18T02:40:25.638Z,38.33
2019-01-18T02:42:54.871Z,36.15
2019-01-18T02:45:24.766Z,27.20
2019-01-18T02:47:54.127Z,29.87
2019-01-18T02:50:23.533Z,30.02
2019-01-18T02:52:52.933Z,33.70
2019-01-18T02:55:28.831Z,24.32
2019-01-18T02:57:53.147Z,43.38
2019-01-18T03:00:24.028Z,21.85
2019-01-18T03:02:53.468Z,29.85
2019-01-18T03:05:27.564Z,39.48
2019-01-18T03:07:56.799Z,23.52
2019-01-18T03:10:28.520Z,19.25
2019-01-18T03:12:57.964Z,26.27
2019-01-18T03:15:27.246Z,36.15
2019-01-18T03:17:56.532Z,34.65
2019-01-18T03:20:25.880Z,17.40
2019-01-18T03:22:55.113Z,25.88
2019-01-18T03:25:28.992Z,30.40
2019-01-18T03:27:58.338Z,31.45
2019-01-18T03:30:27.643Z,35.15
2019-01-18T03:32:57.062Z,28.73
2019-01-18T03:35:26.482Z,50.17
2019-01-18T03:37:55.864Z,28.75
2019-01-18T03:40:26.267Z,35.08
2019-01-18T03:42:55.630Z,38.70
2019-01-18T03:45:25.022Z,40.00
2019-01-18T03:47:54.321Z,48.52
2019-01-18T03:50:25.727Z,50.92
2019-01-18T03:52:55.311Z,81.55
2019-01-18T03:55:24.898Z,56.63
2019-01-18T03:57:54.174Z,73.10
2019-01-18T04:00:28.875Z,51.53
2019-01-18T04:02:58.271Z,58.30
2019-01-18T04:05:27.749Z,46.58
2019-01-18T04:07:57.174Z,67.72
2019-01-18T04:10:26.577Z,49.27
2019-01-18T04:12:56.068Z,62.17
2019-01-18T04:15:25.609Z,44.40
2019-01-18T04:17:55.013Z,45.70
2019-01-18T04:20:24.717Z,44.53
2019-01-18T04:22:54.023Z,40.65
2019-01-18T04:25:33.080Z,32.93
2019-01-18T04:28:02.355Z,52.00
2019-01-18T04:30:33.490Z,36.40
2019-01-18T04:33:02.775Z,43.95
2019-01-18T04:35:32.142Z,31.70
2019-01-18T04:38:01.483Z,41.23
2019-01-18T04:40:30.739Z,33.53
2019-01-18T04:43:00.141Z,39.95
2019-01-18T04:45:29.535Z,39.10
2019-01-18T04:47:58.956Z,25.95
2019-01-18T04:50:29.022Z,38.42
2019-01-18T04:52:58.368Z,39.98
2019-01-18T04:55:27.791Z,47.25
2019-01-18T04:57:57.181Z,38.13
2019-01-18T05:00:28.458Z,48.42
2019-01-18T05:02:57.926Z,31.20
2019-01-18T05:05:27.421Z,45.80
2019-01-18T05:07:56.808Z,40.70
2019-01-18T05:10:29.788Z,34.30
2019-01-18T05:12:59.741Z,47.27
2019-01-18T05:15:31.630Z,50.80
2019-01-18T05:18:01.037Z,47.67
2019-01-18T05:20:30.448Z,47.43
2019-01-18T05:22:59.787Z,37.67
2019-01-18T05:25:29.447Z,34.50
2019-01-18T05:27:58.741Z,40.30
2019-01-18T05:30:29.439Z,42.88
2019-01-18T05:32:58.876Z,28.10
2019-01-18T05:35:28.255Z,40.88
2019-01-18T05:37:57.747Z,33.63
2019-01-18T05:40:27.142Z,28.52
2019-01-18T05:42:56.402Z,38.38
2019-01-18T05:45:25.762Z,43.25
2019-01-18T05:47:55.181Z,47.50
2019-01-18T05:50:29.173Z,39.92
2019-01-18T05:53:00.131Z,36.30
2019-01-18T05:55:29.524Z,32.65
2019-01-18T05:57:58.838Z,38.13
2019-01-18T06:00:35.196Z,37.50
2019-01-18T06:03:04.711Z,31.80
2019-01-18T06:05:35.785Z,28.23
2019-01-18T06:08:05.203Z,49.45
2019-01-18T06:10:34.497Z,56.13
2019-01-18T06:13:03.783Z,41.65
2019-01-18T06:15:33.223Z,46.68
2019-01-18T06:18:02.626Z,42.53
2019-01-18T06:20:31.950Z,47.67
2019-01-18T06:23:01.331Z,57.40
2019-01-18T06:25:30.709Z,48.05
2019-01-18T06:27:59.983Z,50.48
2019-01-18T06:30:29.395Z,43.78
2019-01-18T06:32:58.673Z,39.10
2019-01-18T06:35:27.947Z,55.80
2019-01-18T06:37:57.363Z,52.83
2019-01-18T06:40:28.291Z,38.53
2019-01-18T06:42:57.712Z,44.90
2019-01-18T06:45:27.949Z,42.43
2019-01-18T06:47:57.258Z,47.95
2019-01-18T06:50:26.630Z,49.50
2019-01-18T06:52:55.968Z,58.65
2019-01-18T06:55:28.048Z,52.70
2019-01-18T06:57:57.346Z,56.48
2019-01-18T07:00:29.065Z,48.10
2019-01-18T07:02:58.503Z,59.60
2019-01-18T07:05:27.837Z,49.13
2019-01-18T07:07:57.207Z,41.53
2019-01-18T07:10:26.644Z,57.17
2019-01-18T07:12:55.949Z,42.25
2019-01-18T07:15:25.277Z,41.13
2019-01-18T07:17:54.612Z,53.90
2019-01-18T07:20:23.965Z,45.55
2019-01-18T07:22:53.302Z,43.95
2019-01-18T07:25:30.305Z,46.15
2019-01-18T07:27:59.713Z,49.83
2019-01-18T07:30:34.234Z,49.67
2019-01-18T07:33:03.862Z,46.18
2019-01-18T07:35:33.173Z,38.23
2019-01-18T07:38:02.478Z,50.73
2019-01-18T07:40:31.800Z,35.55
2019-01-18T07:43:01.105Z,46.60
2019-01-18T07:45:30.487Z,63.30
2019-01-18T07:47:59.806Z,46.70
2019-01-18T07:50:29.190Z,58.60
2019-01-18T07:52:58.764Z,58.78
2019-01-18T07:55:28.073Z,73.78
2019-01-18T07:57:57.431Z,77.50
2019-01-18T08:00:31.268Z,81.25
2019-01-18T08:03:00.637Z,71.00
2019-01-18T08:05:31.691Z,76.90
2019-01-18T08:08:03.103Z,96.08
2019-01-18T08:10:36.188Z,94.87
2019-01-18T08:13:05.593Z,126.55
2019-01-18T08:15:34.919Z,112.05
2019-01-18T08:18:04.299Z,86.92
2019-01-18T08:20:33.678Z,135.68
2019-01-18T08:23:03.446Z,107.58
2019-01-18T08:25:32.685Z,128.70
2019-01-18T08:28:02.898Z,181.97
2019-01-18T08:30:32.700Z,91.08
2019-01-18T08:33:02.068Z,89.60
2019-01-18T08:35:31.920Z,97.92
2019-01-18T08:38:01.304Z,197.90
2019-01-18T08:40:36.161Z,123.38
2019-01-18T08:43:07.173Z,210.28
2019-01-18T08:45:39.796Z,165.07
2019-01-18T08:48:09.218Z,85.40
2019-01-18T08:50:38.956Z,67.82
2019-01-18T08:53:08.396Z,105.70
2019-01-18T08:55:37.784Z,86.82
2019-01-18T08:58:07.467Z,138.47
2019-01-18T09:00:36.806Z,127.22
2019-01-18T09:03:06.192Z,143.80
2019-01-18T09:05:35.521Z,103.30
2019-01-18T09:08:04.950Z,88.03
2019-01-18T09:10:34.454Z,105.20
2019-01-18T09:13:03.723Z,111.83
2019-01-18T09:15:33.079Z,171.95
2019-01-18T09:18:05.403Z,88.40
2019-01-18T09:20:34.746Z,73.70
2019-01-18T09:23:04.115Z,98.22
2019-01-18T09:25:33.670Z,68.15
2019-01-18T09:28:03.078Z,158.63
2019-01-18T09:30:34.264Z,58.80
2019-01-18T09:33:05.835Z,109.40
2019-01-18T09:35:35.769Z,73.17
2019-01-18T09:38:08.907Z,75.75
2019-01-18T09:40:38.361Z,100.90
2019-01-18T09:43:07.698Z,134.40
2019-01-18T09:45:37.088Z,89.10
2019-01-18T09:48:08.282Z,92.55
2019-01-18T09:50:37.673Z,86.40
2019-01-18T09:53:08.569Z,64.20
2019-01-18T09:55:37.955Z,89.25
2019-01-18T09:58:07.318Z,112.70
2019-01-18T10:00:38.389Z,99.28
2019-01-18T10:03:07.643Z,68.37
2019-01-18T10:05:37.037Z,118.00
2019-01-18T10:08:08.110Z,127.22
2019-01-18T10:10:38.088Z,98.80
2019-01-18T10:13:07.472Z,61.42
2019-01-18T10:15:39.599Z,86.17
2019-01-18T10:18:08.963Z,88.67
2019-01-18T10:20:38.204Z,149.97
2019-01-18T10:23:07.541Z,71.02
2019-01-18T10:25:36.907Z,164.62
2019-01-18T10:28:06.202Z,63.02
2019-01-18T10:30:35.608Z,103.30
2019-01-18T10:33:04.947Z,87.72
2019-01-18T10:35:34.355Z,56.23
2019-01-18T10:38:03.692Z,74.12
2019-01-18T10:40:33.017Z,75.92
2019-01-18T10:43:02.347Z,78.33
2019-01-18T10:45:33.745Z,75.15
2019-01-18T10:48:06.344Z,95.38
2019-01-18T10:50:38.056Z,83.92
2019-01-18T10:53:07.416Z,58.23
2019-01-18T10:55:36.615Z,63.10
2019-01-18T10:58:05.976Z,69.55
2019-01-18T11:00:36.797Z,49.13
2019-01-18T11:03:06.316Z,74.00
2019-01-18T11:05:35.716Z,98.52
2019-01-18T11:08:05.300Z,109.80
2019-01-18T11:10:34.696Z,149.95
2019-01-18T11:13:04.167Z,130.22
2019-01-18T11:15:36.043Z,91.63
2019-01-18T11:18:05.127Z,97.82
2019-01-18T11:21:02.705Z,80.70
2019-01-18T11:23:32.014Z,85.70
2019-01-18T11:26:01.409Z,59.45
2019-01-18T11:28:30.750Z,76.17
2019-01-18T11:31:02.072Z,112.45
2019-01-18T11:33:31.409Z,67.17
2019-01-18T11:36:02.120Z,93.60
2019-01-18T11:38:34.843Z,72.55
2019-01-18T11:41:04.795Z,111.10
2019-01-18T11:43:34.200Z,60.28
2019-01-18T11:46:05.104Z,62.93
2019-01-18T11:48:34.564Z,66.42
2019-01-18T11:51:05.122Z,61.85
2019-01-18T11:53:34.573Z,59.93
2019-01-18T11:56:04.022Z,75.87
2019-01-18T11:58:33.499Z,56.10
2019-01-18T12:01:02.927Z,68.62
2019-01-18T12:03:32.372Z,69.85
2019-01-18T12:06:01.810Z,51.95
2019-01-18T12:08:34.125Z,57.38
2019-01-18T12:11:03.470Z,56.40
2019-01-18T12:13:34.944Z,55.20
2019-01-18T12:16:04.682Z,63.78
2019-01-18T12:18:34.133Z,57.85
2019-01-18T12:21:03.784Z,69.77
2019-01-18T12:23:33.402Z,42.25
2019-01-18T12:26:05.898Z,56.70
2019-01-18T12:28:38.922Z,58.70
2019-01-18T12:31:08.478Z,52.17
2019-01-18T12:33:38.146Z,51.77
2019-01-18T12:36:07.846Z,50.38
2019-01-18T12:38:37.446Z,54.00
2019-01-18T12:41:06.973Z,52.08
2019-01-18T12:43:39.590Z,60.15
2019-01-18T12:46:08.964Z,52.73
2019-01-18T12:48:38.804Z,51.58
2019-01-18T12:51:08.479Z,68.62
2019-01-18T12:53:38.000Z,67.30
2019-01-18T12:56:07.518Z,60.10
2019-01-18T12:58:37.251Z,43.50
2019-01-18T13:01:06.802Z,64.67
2019-01-18T13:03:36.285Z,61.92
2019-01-18T13:06:07.566Z,50.65
2019-01-18T13:08:36.961Z,63.58
2019-01-18T13:11:06.482Z,51.83
2019-01-18T13:13:35.898Z,42.15
2019-01-18T13:16:25.007Z,52.10
2019-01-18T13:19:00.281Z,59.30
2019-01-18T13:21:29.693Z,54.98
2019-01-18T13:24:01.626Z,46.88
2019-01-18T13:26:34.071Z,60.20
2019-01-18T13:29:03.446Z,47.38
2019-01-18T13:31:32.871Z,48.35
2019-01-18T13:34:03.196Z,45.70
2019-01-18T13:36:32.736Z,41.88
2019-01-18T13:39:02.089Z,61.60
2019-01-18T13:41:31.594Z,51.02
2019-01-18T13:44:00.962Z,52.88
2019-01-18T13:46:30.358Z,52.93
2019-01-18T13:48:59.770Z,50.48
2019-01-18T13:51:29.091Z,51.88
2019-01-18T13:53:58.324Z,54.90
2019-01-18T13:56:27.903Z,40.90
2019-01-18T13:58:57.562Z,53.15
2019-01-18T14:01:26.771Z,50.83
2019-01-18T14:03:56.782Z,48.13
2019-01-18T14:06:26.637Z,38.60
2019-01-18T14:08:56.028Z,50.67
2019-01-18T14:11:25.351Z,65.78
2019-01-18T14:13:54.723Z,57.88
2019-01-18T14:16:24.142Z,57.38
2019-01-18T14:18:53.601Z,53.68
2019-01-18T14:21:23.025Z,52.25
2019-01-18T14:23:52.456Z,47.40
2019-01-18T14:26:21.965Z,59.77
2019-01-18T14:28:51.321Z,53.58
2019-01-18T14:31:23.016Z,61.15
2019-01-18T14:33:52.778Z,53.20
2019-01-18T14:36:22.522Z,75.95
2019-01-18T14:38:51.903Z,54.13
2019-01-18T14:41:21.411Z,55.70
2019-01-18T14:43:50.770Z,72.90
2019-01-18T14:46:20.061Z,49.58
2019-01-18T14:48:49.518Z,61.10
2019-01-18T14:51:18.788Z,59.98
2019-01-18T14:53:48.113Z,56.77
2019-01-18T14:56:17.493Z,70.05
2019-01-18T14:58:46.874Z,55.92
2019-01-18T15:01:16.200Z,61.05
2019-01-18T15:03:45.795Z,58.33
2019-01-18T15:06:15.375Z,67.60
2019-01-18T15:08:44.624Z,71.37
2019-01-18T15:11:14.016Z,67.58
2019-01-18T15:13:43.389Z,60.67
2019-01-18T15:16:12.808Z,73.02
2019-01-18T15:18:42.119Z,51.55
2019-01-18T15:21:11.486Z,54.95
2019-01-18T15:23:40.836Z,55.65
2019-01-18T15:26:10.266Z,64.10
2019-01-18T15:28:39.666Z,62.58
2019-01-18T15:31:09.077Z,69.40
2019-01-18T15:33:38.501Z,69.00
2019-01-18T15:36:08.333Z,71.95
2019-01-18T15:38:37.790Z,75.78
2019-01-18T15:41:07.198Z,75.22
2019-01-18T15:43:36.546Z,79.35
2019-01-18T15:46:05.832Z,79.15
2019-01-18T15:48:35.190Z,62.43
2019-01-18T15:51:04.579Z,68.07
2019-01-18T15:53:33.873Z,63.73
2019-01-18T15:56:03.282Z,74.17
2019-01-18T15:58:32.691Z,71.02
2019-01-18T16:01:02.060Z,66.90
2019-01-18T16:03:31.346Z,73.78
2019-01-18T16:06:00.644Z,75.78
2019-01-18T16:08:29.962Z,70.83
2019-01-18T16:10:59.386Z,76.12
2019-01-18T16:13:29.080Z,76.72
2019-01-18T16:16:19.632Z,86.97
2019-01-18T16:18:49.425Z,92.35
2019-01-18T16:21:18.799Z,92.88
2019-01-18T16:23:48.185Z,76.35
2019-01-18T16:26:17.417Z,89.22
2019-01-18T16:28:46.740Z,86.35
2019-01-18T16:31:16.142Z,93.82
2019-01-18T16:33:45.559Z,97.20
2019-01-18T16:36:14.849Z,90.03
2019-01-18T16:38:46.025Z,109.48
2019-01-18T16:41:15.335Z,101.33
2019-01-18T16:43:46.307Z,104.85
2019-01-18T16:46:17.986Z,99.55
2019-01-18T16:48:47.387Z,103.97
2019-01-18T16:51:16.841Z,102.02
2019-01-18T16:53:46.162Z,77.65
2019-01-18T16:56:15.549Z,72.35
2019-01-18T16:58:44.853Z,100.58
2019-01-18T17:01:14.296Z,86.67
2019-01-18T17:03:43.586Z,93.30
2019-01-18T17:06:12.990Z,82.53
2019-01-18T17:08:42.432Z,96.95
2019-01-18T17:11:11.978Z,93.95
2019-01-18T17:13:42.295Z,110.75
2019-01-18T17:16:11.724Z,98.00
2019-01-18T17:18:41.310Z,93.42
2019-01-18T17:21:10.736Z,90.25
2019-01-18T17:23:40.136Z,100.60
2019-01-18T17:26:09.692Z,91.42
2019-01-18T17:28:39.038Z,93.55
2019-01-18T17:31:08.423Z,85.60
2019-01-18T17:33:38.593Z,80.72
2019-01-18T17:36:22.306Z,94.28
2019-01-18T17:39:13.008Z,82.53
2019-01-18T17:42:30.802Z,82.17
2019-01-18T17:45:53.719Z,93.75
2019-01-18T17:48:48.335Z,105.00
2019-01-18T17:52:00.879Z,80.57
2019-01-18T17:55:16.793Z,84.30
2019-01-18T17:58:39.140Z,98.40
2019-01-18T18:01:50.170Z,107.40
2019-01-18T18:05:07.995Z,106.67
2019-01-18T18:08:36.700Z,104.97
2019-01-18T18:11:33.649Z,103.10
2019-01-18T18:14:50.354Z,108.35
2019-01-18T18:17:44.967Z,101.00
2019-01-18T18:20:37.217Z,101.30
2019-01-18T18:23:35.334Z,110.00
2019-01-18T18:26:15.328Z,88.37
2019-01-18T18:29:49.821Z,72.60
2019-01-18T18:33:19.814Z,91.82
2019-01-18T18:36:26.750Z,91.72
2019-01-18T18:39:46.219Z,93.15
2019-01-18T18:42:49.460Z,81.50
2019-01-18T18:46:01.131Z,86.47
2019-01-18T18:49:07.975Z,137.52
2019-01-18T18:52:17.088Z,118.90
2019-01-18T18:55:10.920Z,110.72
2019-01-18T18:58:22.259Z,90.57
2019-01-18T19:01:43.160Z,110.12
2019-01-18T19:04:48.105Z,92.85
2019-01-18T19:08:10.439Z,84.37
2019-01-18T19:11:17.105Z,77.42
2019-01-18T19:14:42.917Z,86.75
2019-01-18T19:17:56.700Z,74.15
2019-01-18T19:21:06.640Z,75.25
2019-01-18T19:24:21.099Z,68.78
2019-01-18T19:27:30.190Z,78.65
2019-01-18T19:30:34.041Z,90.05
2019-01-18T19:33:31.937Z,80.95
2019-01-18T19:36:24.661Z,81.65
2019-01-18T19:39:50.187Z,76.62
2019-01-18T19:43:06.426Z,72.30
2019-01-18T19:46:11.983Z,80.70
2019-01-18T19:49:22.790Z,81.53
2019-01-18T19:55:45.879Z,74.67
2019-01-18T19:59:00.842Z,85.95
2019-01-18T20:02:20.201Z,75.85
2019-01-18T20:05:33.359Z,84.03
2019-01-18T20:08:08.560Z,63.23
2019-01-18T20:10:59.874Z,69.82
2019-01-18T20:14:13.407Z,75.03
2019-01-18T20:17:14.067Z,68.90
2019-01-18T20:20:33.822Z,69.20
2019-01-18T20:23:42.793Z,70.45
2019-01-18T20:27:08.429Z,60.00
2019-01-18T20:30:31.089Z,58.98
2019-01-18T20:33:43.001Z,63.98
2019-01-18T20:36:44.876Z,53.90
2019-01-18T20:39:50.431Z,49.25
2019-01-18T20:42:55.695Z,62.45
2019-01-18T20:45:51.184Z,56.53
2019-01-18T20:48:38.464Z,56.92
2019-01-18T20:51:41.688Z,57.98
2019-01-18T20:54:50.782Z,74.58
2019-01-18T20:58:01.284Z,56.77
2019-01-18T21:01:14.536Z,73.55
2019-01-18T21:04:26.404Z,58.48
2019-01-18T21:07:17.948Z,56.42
2019-01-18T21:10:24.269Z,58.33
2019-01-18T21:13:13.750Z,63.87
2019-01-18T21:16:10.785Z,66.72
2019-01-18T21:18:57.455Z,65.87
2019-01-18T21:22:22.854Z,52.38
2019-01-18T21:25:16.768Z,57.55
2019-01-18T21:28:22.944Z,55.60
2019-01-18T21:31:21.004Z,65.87
2019-01-18T21:34:21.522Z,53.92
2019-01-18T21:37:34.056Z,75.97
2019-01-18T21:40:32.339Z,53.58
2019-01-18T21:43:43.633Z,66.07
2019-01-18T21:46:56.399Z,61.10
2019-01-18T21:49:47.092Z,60.33
2019-01-18T21:52:56.415Z,60.40
2019-01-18T21:56:30.941Z,58.78
2019-01-18T21:59:33.326Z,81.12
2019-01-18T22:03:01.899Z,60.35
2019-01-18T22:05:45.288Z,66.37
2019-01-18T22:08:49.335Z,58.35
2019-01-18T22:12:02.777Z,60.00
2019-01-18T22:15:18.688Z,66.47
2019-01-18T22:18:22.474Z,55.70
2019-01-18T22:21:18.786Z,73.07
2019-01-18T22:24:31.507Z,56.53
2019-01-18T22:27:25.282Z,49.27
2019-01-18T22:30:24.707Z,51.90
2019-01-18T22:33:19.575Z,60.20
2019-01-18T22:36:37.942Z,52.33
2019-01-18T22:39:56.027Z,64.47
2019-01-18T22:42:54.662Z,52.17
2019-01-18T22:45:53.918Z,54.25
2019-01-18T22:48:58.081Z,45.43
2019-01-18T22:51:47.089Z,62.03
2019-01-18T22:54:49.499Z,46.83
2019-01-18T22:57:57.215Z,49.58
2019-01-18T23:01:05.858Z,55.58
2019-01-18T23:04:07.302Z,55.55
2019-01-18T23:07:05.348Z,56.60
2019-01-18T23:10:27.709Z,49.08
2019-01-18T23:13:46.891Z,48.23
2019-01-18T23:16:57.322Z,57.62
2019-01-18T23:19:36.402Z,42.27
2019-01-18T23:22:29.780Z,46.90
2019-01-18T23:25:16.193Z,42.85
2019-01-18T23:28:25.268Z,43.10
2019-01-18T23:31:01.900Z,61.95
2019-01-18T23:33:43.567Z,60.75
2019-01-18T23:36:34.496Z,46.33
2019-01-18T23:39:50.017Z,44.53
2019-01-18T23:42:32.678Z,44.73
2019-01-18T23:45:40.177Z,50.28
2019-01-18T23:48:45.193Z,37.40
2019-01-18T23:51:40.000Z,40.63
2019-01-18T23:54:45.124Z,45.17
2019-01-18T23:57:44.868Z,38.05
